createdAt,value
2018-12-21T00:00:41.527Z,474
2018-12-21T00:01:48.733Z,475
2018-12-21T00:02:55.935Z,475
2018-12-21T00:04:03.137Z,474
2018-12-21T00:05:10.332Z,474
2018-12-21T00:06:17.258Z,475
2018-12-21T00:07:24.452Z,473
2018-12-21T00:08:31.647Z,474
2018-12-21T00:09:38.841Z,474
2018-12-21T00:10:46.038Z,475
2018-12-21T00:11:53.236Z,475
2018-12-21T00:13:00.153Z,474
2018-12-21T00:14:07.352Z,475
2018-12-21T00:15:14.548Z,475
2018-12-21T00:16:21.747Z,474
2018-12-21T00:17:35.663Z,474
2018-12-21T00:18:42.857Z,474
2018-12-21T00:19:50.052Z,474
2018-12-21T00:20:56.972Z,474
2018-12-21T00:22:04.168Z,474
2018-12-21T00:23:11.090Z,475
2018-12-21T00:24:18.292Z,475
2018-12-21T00:25:24.941Z,475
2018-12-21T00:26:32.141Z,476
2018-12-21T00:27:39.150Z,475
2018-12-21T00:28:46.347Z,475
2018-12-21T00:29:53.543Z,475
2018-12-21T00:31:00.742Z,475
2018-12-21T00:32:07.939Z,476
2018-12-21T00:33:14.863Z,477
2018-12-21T00:34:22.060Z,476
2018-12-21T00:35:29.258Z,476
2018-12-21T00:36:36.187Z,476
2018-12-21T00:37:43.382Z,476
2018-12-21T00:38:50.583Z,478
2018-12-21T00:39:57.781Z,478
2018-12-21T00:41:04.711Z,476
2018-12-21T00:42:11.907Z,477
2018-12-21T00:43:19.101Z,476
2018-12-21T00:44:26.021Z,477
2018-12-21T00:45:33.220Z,477
2018-12-21T00:46:40.415Z,478
2018-12-21T00:47:47.416Z,477
2018-12-21T00:48:54.603Z,477
2018-12-21T00:50:01.800Z,478
2018-12-21T00:51:08.998Z,479
2018-12-21T00:52:16.218Z,478
2018-12-21T00:53:23.414Z,479
2018-12-21T00:54:30.696Z,479
2018-12-21T00:55:37.893Z,478
2018-12-21T00:56:44.812Z,479
2018-12-21T00:57:52.013Z,479
2018-12-21T00:58:58.938Z,480
2018-12-21T01:00:06.137Z,480
2018-12-21T01:01:13.056Z,480
2018-12-21T01:02:20.255Z,481
2018-12-21T01:03:27.179Z,481
2018-12-21T01:04:34.112Z,480
2018-12-21T01:05:41.315Z,482
2018-12-21T01:06:48.506Z,482
2018-12-21T01:07:55.707Z,481
2018-12-21T01:09:02.906Z,481
2018-12-21T01:10:10.107Z,481
2018-12-21T01:11:17.300Z,482
2018-12-21T01:12:24.496Z,481
2018-12-21T01:13:31.691Z,485
2018-12-21T01:14:38.886Z,484
2018-12-21T01:15:46.083Z,485
2018-12-21T01:16:53.279Z,483
2018-12-21T01:18:00.475Z,486
2018-12-21T01:19:07.396Z,477
2018-12-21T01:20:14.322Z,485
2018-12-21T01:21:20.974Z,486
2018-12-21T01:22:28.172Z,491
2018-12-21T01:23:35.374Z,493
2018-12-21T01:24:42.574Z,495
2018-12-21T01:25:49.768Z,496
2018-12-21T01:26:56.962Z,494
2018-12-21T01:28:03.890Z,491
2018-12-21T01:29:10.537Z,485
2018-12-21T01:30:17.187Z,480
2018-12-21T01:31:24.110Z,476
2018-12-21T01:32:31.311Z,475
2018-12-21T01:33:38.238Z,475
2018-12-21T01:34:45.175Z,474
2018-12-21T01:35:52.372Z,475
2018-12-21T01:36:59.571Z,474
2018-12-21T01:38:06.768Z,475
2018-12-21T01:39:13.412Z,475
2018-12-21T01:40:20.603Z,475
2018-12-21T01:41:27.526Z,474
2018-12-21T01:42:34.447Z,475
2018-12-21T01:43:41.427Z,475
2018-12-21T01:44:48.627Z,475
2018-12-21T01:45:55.818Z,475
2018-12-21T01:47:02.735Z,475
2018-12-21T01:48:09.927Z,474
2018-12-21T01:49:16.847Z,475
2018-12-21T01:50:24.040Z,475
2018-12-21T01:51:31.233Z,475
2018-12-21T01:52:38.443Z,475
2018-12-21T01:53:45.368Z,474
2018-12-21T01:54:52.557Z,475
2018-12-21T01:55:59.750Z,476
2018-12-21T01:57:06.945Z,475
2018-12-21T01:58:14.136Z,476
2018-12-21T01:59:21.053Z,475
2018-12-21T02:00:27.992Z,476
2018-12-21T02:01:34.896Z,475
2018-12-21T02:02:41.816Z,474
2018-12-21T02:03:48.731Z,475
2018-12-21T02:04:55.924Z,473
2018-12-21T02:06:03.118Z,473
2018-12-21T02:07:10.513Z,475
2018-12-21T02:08:17.434Z,474
2018-12-21T02:09:24.358Z,475
2018-12-21T02:10:31.551Z,475
2018-12-21T02:11:38.745Z,475
2018-12-21T02:12:45.396Z,475
2018-12-21T02:13:52.593Z,475
2018-12-21T02:14:59.788Z,476
2018-12-21T02:16:06.986Z,476
2018-12-21T02:17:14.184Z,476
2018-12-21T02:18:21.368Z,478
2018-12-21T02:19:28.562Z,477
2018-12-21T02:20:35.479Z,477
2018-12-21T02:21:42.671Z,477
2018-12-21T02:22:49.868Z,477
2018-12-21T02:23:56.791Z,478
2018-12-21T02:25:03.707Z,477
2018-12-21T02:26:10.900Z,480
2018-12-21T02:27:18.092Z,479
2018-12-21T02:28:25.021Z,480
2018-12-21T02:29:32.215Z,479
2018-12-21T02:30:39.406Z,479
2018-12-21T02:31:46.599Z,479
2018-12-21T02:32:53.786Z,478
2018-12-21T02:34:00.990Z,480
2018-12-21T02:35:08.191Z,480
2018-12-21T02:36:15.403Z,480
2018-12-21T02:37:22.599Z,479
2018-12-21T02:38:29.797Z,481
2018-12-21T02:39:36.996Z,480
2018-12-21T02:40:43.927Z,480
2018-12-21T02:41:50.844Z,481
2018-12-21T02:42:57.794Z,481
2018-12-21T02:44:04.985Z,482
2018-12-21T02:45:11.923Z,482
2018-12-21T02:46:19.112Z,482
2018-12-21T02:47:26.309Z,482
2018-12-21T02:48:33.231Z,482
2018-12-21T02:49:40.425Z,482
2018-12-21T02:50:47.618Z,482
2018-12-21T02:51:54.813Z,482
2018-12-21T02:53:01.731Z,484
2018-12-21T02:54:08.917Z,483
2018-12-21T02:55:15.839Z,484
2018-12-21T02:56:22.761Z,487
2018-12-21T02:57:29.953Z,485
2018-12-21T02:58:37.144Z,485
2018-12-21T02:59:44.336Z,486
2018-12-21T03:00:51.525Z,485
2018-12-21T03:01:58.718Z,483
2018-12-21T03:03:05.906Z,484
2018-12-21T03:04:13.099Z,484
2018-12-21T03:05:20.293Z,485
2018-12-21T03:06:27.484Z,485
2018-12-21T03:07:34.679Z,485
2018-12-21T03:08:41.873Z,484
2018-12-21T03:09:49.067Z,487
2018-12-21T03:10:56.257Z,486
2018-12-21T03:12:03.183Z,486
2018-12-21T03:13:10.380Z,487
2018-12-21T03:14:17.578Z,486
2018-12-21T03:15:24.778Z,487
2018-12-21T03:16:31.780Z,489
2018-12-21T03:17:38.973Z,488
2018-12-21T03:18:46.167Z,487
2018-12-21T03:19:55.524Z,490
2018-12-21T03:21:02.494Z,489
2018-12-21T03:22:15.786Z,489
2018-12-21T03:23:22.989Z,489
2018-12-21T03:24:30.054Z,491
2018-12-21T03:25:36.986Z,490
2018-12-21T03:26:44.182Z,490
2018-12-21T03:27:51.386Z,492
2018-12-21T03:28:58.312Z,492
2018-12-21T03:30:05.274Z,492
2018-12-21T03:31:12.465Z,492
2018-12-21T03:32:19.814Z,492
2018-12-21T03:33:27.007Z,493
2018-12-21T03:34:34.205Z,492
2018-12-21T03:35:41.405Z,493
2018-12-21T03:36:48.598Z,492
2018-12-21T03:37:55.268Z,492
2018-12-21T03:39:02.454Z,491
2018-12-21T03:40:09.376Z,494
2018-12-21T03:41:16.576Z,493
2018-12-21T03:42:23.501Z,494
2018-12-21T03:43:30.699Z,494
2018-12-21T03:44:37.895Z,495
2018-12-21T03:45:45.094Z,494
2018-12-21T03:46:52.293Z,494
2018-12-21T03:47:59.496Z,493
2018-12-21T03:49:06.695Z,495
2018-12-21T03:50:13.887Z,494
2018-12-21T03:51:21.082Z,496
2018-12-21T03:52:28.281Z,494
2018-12-21T03:53:35.481Z,496
2018-12-21T03:54:42.400Z,497
2018-12-21T03:55:49.612Z,497
2018-12-21T03:56:56.814Z,497
2018-12-21T03:58:04.007Z,496
2018-12-21T03:59:11.202Z,496
2018-12-21T04:00:18.122Z,497
2018-12-21T04:01:25.327Z,496
2018-12-21T04:02:32.519Z,497
2018-12-21T04:03:39.452Z,498
2018-12-21T04:04:46.644Z,499
2018-12-21T04:05:53.891Z,500
2018-12-21T04:07:00.813Z,502
2018-12-21T04:08:08.226Z,501
2018-12-21T04:09:15.420Z,502
2018-12-21T04:10:22.615Z,501
2018-12-21T04:11:29.815Z,502
2018-12-21T04:12:37.016Z,504
2018-12-21T04:13:44.212Z,502
2018-12-21T04:14:51.413Z,503
2018-12-21T04:15:58.606Z,504
2018-12-21T04:17:05.533Z,505
2018-12-21T04:18:12.731Z,505
2018-12-21T04:19:19.920Z,506
2018-12-21T04:20:26.854Z,507
2018-12-21T04:21:34.037Z,508
2018-12-21T04:22:40.964Z,508
2018-12-21T04:23:48.184Z,507
2018-12-21T04:24:55.101Z,509
2018-12-21T04:26:02.301Z,509
2018-12-21T04:27:09.494Z,509
2018-12-21T04:28:16.420Z,511
2018-12-21T04:29:23.617Z,510
2018-12-21T04:30:30.815Z,509
2018-12-21T04:31:38.013Z,511
2018-12-21T04:32:45.209Z,512
2018-12-21T04:33:52.404Z,512
2018-12-21T04:34:59.326Z,514
2018-12-21T04:36:06.546Z,514
2018-12-21T04:37:13.737Z,513
2018-12-21T04:38:20.934Z,515
2018-12-21T04:39:27.864Z,514
2018-12-21T04:40:35.062Z,516
2018-12-21T04:41:42.262Z,516
2018-12-21T04:42:49.456Z,516
2018-12-21T04:43:56.388Z,517
2018-12-21T04:45:03.585Z,516
2018-12-21T04:46:10.786Z,516
2018-12-21T04:47:17.980Z,516
2018-12-21T04:48:24.901Z,517
2018-12-21T04:49:32.100Z,518
2018-12-21T04:50:39.297Z,518
2018-12-21T04:51:46.221Z,519
2018-12-21T04:52:53.422Z,519
2018-12-21T04:54:00.621Z,520
2018-12-21T04:55:07.816Z,520
2018-12-21T04:56:15.013Z,520
2018-12-21T04:57:22.216Z,521
2018-12-21T04:58:29.480Z,521
2018-12-21T04:59:36.682Z,521
2018-12-21T05:00:43.881Z,522
2018-12-21T05:01:51.084Z,523
2018-12-21T05:02:58.272Z,524
2018-12-21T05:04:05.466Z,524
2018-12-21T05:05:12.663Z,524
2018-12-21T05:06:19.859Z,525
2018-12-21T05:07:27.058Z,525
2018-12-21T05:08:34.254Z,526
2018-12-21T05:09:41.451Z,527
2018-12-21T05:10:48.650Z,526
2018-12-21T05:11:55.627Z,525
2018-12-21T05:13:02.823Z,527
2018-12-21T05:14:10.044Z,528
2018-12-21T05:15:17.246Z,528
2018-12-21T05:16:24.453Z,528
2018-12-21T05:17:31.652Z,529
2018-12-21T05:18:38.845Z,532
2018-12-21T05:19:46.038Z,533
2018-12-21T05:20:53.241Z,532
2018-12-21T05:22:00.559Z,532
2018-12-21T05:23:07.747Z,532
2018-12-21T05:24:14.941Z,531
2018-12-21T05:25:22.146Z,534
2018-12-21T05:26:29.070Z,533
2018-12-21T05:27:36.267Z,532
2018-12-21T05:28:43.193Z,532
2018-12-21T05:29:50.386Z,534
2018-12-21T05:30:57.578Z,535
2018-12-21T05:32:04.783Z,535
2018-12-21T05:33:11.979Z,534
2018-12-21T05:34:19.177Z,536
2018-12-21T05:35:26.383Z,537
2018-12-21T05:36:33.303Z,537
2018-12-21T05:37:40.224Z,536
2018-12-21T05:38:47.421Z,537
2018-12-21T05:39:54.621Z,537
2018-12-21T05:41:01.818Z,538
2018-12-21T05:42:08.746Z,539
2018-12-21T05:43:15.945Z,540
2018-12-21T05:44:22.595Z,540
2018-12-21T05:45:29.794Z,540
2018-12-21T05:46:36.999Z,541
2018-12-21T05:47:44.191Z,541
2018-12-21T05:48:51.116Z,540
2018-12-21T05:49:58.315Z,543
2018-12-21T05:51:05.601Z,543
2018-12-21T05:52:12.539Z,544
2018-12-21T05:53:19.741Z,545
2018-12-21T05:54:26.670Z,545
2018-12-21T05:55:33.874Z,546
2018-12-21T05:56:41.066Z,545
2018-12-21T05:57:48.265Z,546
2018-12-21T05:58:55.463Z,546
2018-12-21T06:00:02.662Z,546
2018-12-21T06:01:09.588Z,546
2018-12-21T06:02:16.785Z,547
2018-12-21T06:03:23.707Z,549
2018-12-21T06:04:30.905Z,548
2018-12-21T06:05:38.098Z,548
2018-12-21T06:06:45.293Z,550
2018-12-21T06:07:52.497Z,549
2018-12-21T06:08:59.694Z,550
2018-12-21T06:10:06.614Z,551
2018-12-21T06:11:13.814Z,551
2018-12-21T06:12:21.015Z,549
2018-12-21T06:13:28.211Z,548
2018-12-21T06:14:35.135Z,548
2018-12-21T06:15:42.336Z,545
2018-12-21T06:16:49.532Z,545
2018-12-21T06:17:56.457Z,546
2018-12-21T06:19:03.662Z,546
2018-12-21T06:20:10.587Z,544
2018-12-21T06:21:17.784Z,546
2018-12-21T06:22:24.713Z,546
2018-12-21T06:23:31.908Z,547
2018-12-21T06:24:38.842Z,545
2018-12-21T06:25:45.827Z,546
2018-12-21T06:26:53.022Z,548
2018-12-21T06:28:00.225Z,555
2018-12-21T06:29:07.144Z,553
2018-12-21T06:30:14.069Z,551
2018-12-21T06:31:21.264Z,552
2018-12-21T06:32:28.186Z,551
2018-12-21T06:33:35.239Z,549
2018-12-21T06:34:42.163Z,549
2018-12-21T06:35:49.057Z,551
2018-12-21T06:36:56.273Z,549
2018-12-21T06:38:03.474Z,549
2018-12-21T06:39:10.676Z,550
2018-12-21T06:40:17.981Z,549
2018-12-21T06:41:25.163Z,548
2018-12-21T06:42:32.098Z,543
2018-12-21T06:43:39.027Z,542
2018-12-21T06:44:46.218Z,541
2018-12-21T06:45:53.421Z,538
2018-12-21T06:47:00.134Z,538
2018-12-21T06:48:07.330Z,536
2018-12-21T06:49:14.530Z,534
2018-12-21T06:50:21.726Z,547
2018-12-21T06:51:28.925Z,549
2018-12-21T06:52:36.122Z,544
2018-12-21T06:53:43.317Z,539
2018-12-21T06:54:50.262Z,553
2018-12-21T06:55:57.462Z,553
2018-12-21T06:57:04.653Z,555
2018-12-21T06:58:11.849Z,550
2018-12-21T06:59:19.048Z,547
2018-12-21T07:00:26.248Z,540
2018-12-21T07:01:33.443Z,535
2018-12-21T07:02:40.642Z,542
2018-12-21T07:03:47.560Z,542
2018-12-21T07:04:54.766Z,546
2018-12-21T07:06:01.689Z,547
2018-12-21T07:07:08.967Z,550
2018-12-21T07:08:15.888Z,551
2018-12-21T07:09:23.090Z,550
2018-12-21T07:10:30.285Z,545
2018-12-21T07:11:37.482Z,547
2018-12-21T07:12:46.760Z,548
2018-12-21T07:13:54.177Z,547
2018-12-21T07:15:01.404Z,543
2018-12-21T07:16:08.607Z,538
2018-12-21T07:17:15.537Z,534
2018-12-21T07:18:22.736Z,539
2018-12-21T07:19:29.382Z,536
2018-12-21T07:20:36.585Z,534
2018-12-21T07:21:43.785Z,536
2018-12-21T07:22:50.979Z,534
2018-12-21T07:23:58.178Z,535
2018-12-21T07:25:05.130Z,530
2018-12-21T07:26:12.309Z,535
2018-12-21T07:27:19.520Z,532
2018-12-21T07:28:26.446Z,532
2018-12-21T07:29:33.641Z,534
2018-12-21T07:30:40.841Z,534
2018-12-21T07:31:47.765Z,533
2018-12-21T07:32:54.964Z,532
2018-12-21T07:34:01.890Z,533
2018-12-21T07:35:08.820Z,533
2018-12-21T07:36:15.748Z,533
2018-12-21T07:37:22.948Z,529
2018-12-21T07:38:30.162Z,530
2018-12-21T07:39:37.361Z,534
2018-12-21T07:40:44.563Z,531
2018-12-21T07:41:51.492Z,529
2018-12-21T07:42:58.691Z,531
2018-12-21T07:44:05.884Z,531
2018-12-21T07:45:13.086Z,532
2018-12-21T07:46:20.300Z,531
2018-12-21T07:47:27.497Z,530
2018-12-21T07:48:34.699Z,531
2018-12-21T07:49:41.993Z,532
2018-12-21T07:50:49.200Z,531
2018-12-21T07:51:56.416Z,530
2018-12-21T07:53:03.072Z,529
2018-12-21T07:54:09.990Z,532
2018-12-21T07:55:16.911Z,533
2018-12-21T07:56:24.109Z,530
2018-12-21T07:57:31.034Z,531
2018-12-21T07:58:38.232Z,530
2018-12-21T07:59:45.159Z,530
2018-12-21T08:00:52.375Z,530
2018-12-21T08:01:59.574Z,532
2018-12-21T08:03:06.772Z,532
2018-12-21T08:04:13.432Z,529
2018-12-21T08:05:20.093Z,529
2018-12-21T08:06:27.519Z,527
2018-12-21T08:07:34.717Z,527
2018-12-21T08:08:41.917Z,528
2018-12-21T08:09:48.838Z,527
2018-12-21T08:10:56.042Z,526
2018-12-21T08:12:03.238Z,529
2018-12-21T08:13:10.432Z,529
2018-12-21T08:14:17.669Z,531
2018-12-21T08:15:24.846Z,530
2018-12-21T08:16:31.769Z,527
2018-12-21T08:17:38.969Z,527
2018-12-21T08:18:46.180Z,525
2018-12-21T08:19:53.375Z,525
2018-12-21T08:21:00.569Z,525
2018-12-21T08:22:07.766Z,528
2018-12-21T08:23:14.959Z,527
2018-12-21T08:24:22.170Z,527
2018-12-21T08:25:29.369Z,527
2018-12-21T08:26:36.576Z,525
2018-12-21T08:27:43.496Z,527
2018-12-21T08:28:50.418Z,527
2018-12-21T08:29:57.705Z,525
2018-12-21T08:31:05.324Z,526
2018-12-21T08:32:12.529Z,527
2018-12-21T08:33:19.730Z,529
2018-12-21T08:34:26.929Z,528
2018-12-21T08:35:34.222Z,526
2018-12-21T08:36:41.411Z,528
2018-12-21T08:37:48.336Z,529
2018-12-21T08:38:55.533Z,529
2018-12-21T08:40:02.787Z,528
2018-12-21T08:41:09.708Z,526
2018-12-21T08:42:16.922Z,527
2018-12-21T08:43:24.121Z,527
2018-12-21T08:44:31.048Z,529
2018-12-21T08:45:38.248Z,529
2018-12-21T08:46:45.439Z,529
2018-12-21T08:47:52.693Z,529
2018-12-21T08:48:59.917Z,529
2018-12-21T08:50:07.172Z,528
2018-12-21T08:51:14.099Z,528
2018-12-21T08:52:21.297Z,528
2018-12-21T08:53:28.505Z,527
2018-12-21T08:54:35.702Z,527
2018-12-21T08:55:42.905Z,528
2018-12-21T08:56:49.828Z,529
2018-12-21T08:57:57.023Z,526
2018-12-21T08:59:03.947Z,527
2018-12-21T09:00:11.138Z,526
2018-12-21T09:01:18.335Z,528
2018-12-21T09:02:25.255Z,528
2018-12-21T09:03:32.454Z,527
2018-12-21T09:04:39.650Z,528
2018-12-21T09:05:46.843Z,525
2018-12-21T09:06:54.038Z,523
2018-12-21T09:08:01.239Z,524
2018-12-21T09:09:08.156Z,525
2018-12-21T09:10:14.805Z,524
2018-12-21T09:11:22.028Z,521
2018-12-21T09:12:28.954Z,522
2018-12-21T09:13:36.148Z,523
2018-12-21T09:14:43.354Z,522
2018-12-21T09:15:50.549Z,524
2018-12-21T09:16:57.468Z,525
2018-12-21T09:18:04.726Z,524
2018-12-21T09:19:11.927Z,524
2018-12-21T09:20:19.123Z,522
2018-12-21T09:21:26.327Z,522
2018-12-21T09:22:33.532Z,522
2018-12-21T09:23:40.463Z,522
2018-12-21T09:24:47.118Z,522
2018-12-21T09:25:54.049Z,525
2018-12-21T09:27:01.249Z,524
2018-12-21T09:28:08.172Z,519
2018-12-21T09:29:15.370Z,517
2018-12-21T09:30:22.576Z,520
2018-12-21T09:31:29.773Z,521
2018-12-21T09:32:36.969Z,519
2018-12-21T09:33:43.898Z,519
2018-12-21T09:34:51.096Z,522
2018-12-21T09:35:58.026Z,519
2018-12-21T09:37:05.224Z,519
2018-12-21T09:38:11.876Z,522
2018-12-21T09:39:19.081Z,519
2018-12-21T09:40:26.281Z,517
2018-12-21T09:41:33.486Z,516
2018-12-21T09:42:40.497Z,517
2018-12-21T09:43:47.699Z,518
2018-12-21T09:44:54.892Z,515
2018-12-21T09:46:02.092Z,516
2018-12-21T09:47:09.322Z,518
2018-12-21T09:48:16.521Z,517
2018-12-21T09:49:23.446Z,515
2018-12-21T09:50:30.372Z,515
2018-12-21T09:51:37.293Z,515
2018-12-21T09:52:44.219Z,518
2018-12-21T09:53:51.141Z,514
2018-12-21T09:54:58.343Z,515
2018-12-21T09:56:05.539Z,516
2018-12-21T09:57:12.736Z,514
2018-12-21T09:58:19.937Z,515
2018-12-21T09:59:26.859Z,515
2018-12-21T10:00:34.056Z,516
2018-12-21T10:01:41.251Z,515
2018-12-21T10:02:48.450Z,515
2018-12-21T10:03:55.373Z,514
2018-12-21T10:05:02.578Z,512
2018-12-21T10:06:09.771Z,514
2018-12-21T10:07:16.967Z,515
2018-12-21T10:08:23.916Z,513
2018-12-21T10:09:30.568Z,513
2018-12-21T10:10:37.763Z,509
2018-12-21T10:11:44.958Z,513
2018-12-21T10:12:54.469Z,512
2018-12-21T10:14:01.666Z,513
2018-12-21T10:15:08.863Z,513
2018-12-21T10:16:16.062Z,515
2018-12-21T10:17:23.257Z,515
2018-12-21T10:18:30.454Z,511
2018-12-21T10:19:37.107Z,511
2018-12-21T10:20:44.030Z,510
2018-12-21T10:21:50.956Z,509
2018-12-21T10:22:58.154Z,512
2018-12-21T10:24:05.349Z,514
2018-12-21T10:25:12.268Z,513
2018-12-21T10:26:19.462Z,512
2018-12-21T10:27:26.669Z,512
2018-12-21T10:28:33.861Z,512
2018-12-21T10:29:41.060Z,509
2018-12-21T10:30:48.256Z,509
2018-12-21T10:31:55.457Z,512
2018-12-21T10:33:02.384Z,509
2018-12-21T10:34:09.587Z,511
2018-12-21T10:35:16.790Z,511
2018-12-21T10:36:23.720Z,510
2018-12-21T10:37:30.368Z,510
2018-12-21T10:38:37.298Z,510
2018-12-21T10:39:44.501Z,510
2018-12-21T10:40:51.699Z,509
2018-12-21T10:41:58.618Z,510
2018-12-21T10:43:05.816Z,510
2018-12-21T10:44:13.021Z,511
2018-12-21T10:45:19.945Z,512
2018-12-21T10:46:26.871Z,512
2018-12-21T10:47:34.066Z,510
2018-12-21T10:48:40.988Z,510
2018-12-21T10:49:48.193Z,512
2018-12-21T10:50:55.399Z,512
2018-12-21T10:52:02.598Z,509
2018-12-21T10:53:09.805Z,508
2018-12-21T10:54:17.014Z,510
2018-12-21T10:55:24.216Z,508
2018-12-21T10:56:31.141Z,510
2018-12-21T10:57:38.338Z,511
2018-12-21T10:58:45.265Z,509
2018-12-21T10:59:52.474Z,509
2018-12-21T11:00:59.673Z,509
2018-12-21T11:02:06.871Z,510
2018-12-21T11:03:14.072Z,507
2018-12-21T11:04:21.003Z,509
2018-12-21T11:05:28.204Z,509
2018-12-21T11:06:35.412Z,510
2018-12-21T11:07:42.612Z,512
2018-12-21T11:08:49.811Z,510
2018-12-21T11:09:57.006Z,510
2018-12-21T11:11:03.945Z,513
2018-12-21T11:12:10.874Z,510
2018-12-21T11:13:18.071Z,509
2018-12-21T11:14:25.272Z,508
2018-12-21T11:15:32.199Z,511
2018-12-21T11:16:39.398Z,509
2018-12-21T11:17:46.316Z,510
2018-12-21T11:18:53.520Z,511
2018-12-21T11:20:15.367Z,511
2018-12-21T11:21:22.567Z,509
2018-12-21T11:22:29.772Z,510
2018-12-21T11:23:36.705Z,509
2018-12-21T11:24:43.633Z,510
2018-12-21T11:25:50.835Z,509
2018-12-21T11:26:58.029Z,510
2018-12-21T11:28:04.964Z,509
2018-12-21T11:29:12.167Z,509
2018-12-21T11:30:19.101Z,508
2018-12-21T11:31:26.291Z,510
2018-12-21T11:32:33.492Z,510
2018-12-21T11:33:40.691Z,510
2018-12-21T11:34:47.619Z,508
2018-12-21T11:35:54.825Z,508
2018-12-21T11:37:02.028Z,511
2018-12-21T11:38:09.229Z,510
2018-12-21T11:39:16.470Z,509
2018-12-21T11:40:23.710Z,509
2018-12-21T11:41:30.913Z,510
2018-12-21T11:42:38.108Z,511
2018-12-21T11:43:45.309Z,510
2018-12-21T11:44:52.510Z,510
2018-12-21T11:45:59.715Z,510
2018-12-21T11:47:06.918Z,512
2018-12-21T11:48:13.844Z,512
2018-12-21T11:49:20.498Z,513
2018-12-21T11:50:27.149Z,509
2018-12-21T11:51:34.353Z,511
2018-12-21T11:52:41.556Z,510
2018-12-21T11:53:48.756Z,509
2018-12-21T11:54:55.954Z,508
2018-12-21T11:56:03.162Z,512
2018-12-21T11:57:10.094Z,510
2018-12-21T11:58:17.293Z,511
2018-12-21T11:59:24.489Z,510
2018-12-21T12:00:31.432Z,513
2018-12-21T12:01:38.639Z,512
2018-12-21T12:02:45.568Z,513
2018-12-21T12:03:52.499Z,514
2018-12-21T12:04:59.699Z,513
2018-12-21T12:06:06.994Z,512
2018-12-21T12:07:13.925Z,511
2018-12-21T12:08:21.133Z,511
2018-12-21T12:09:28.335Z,514
2018-12-21T12:10:35.529Z,515
2018-12-21T12:11:42.725Z,514
2018-12-21T12:12:49.924Z,513
2018-12-21T12:13:57.128Z,515
2018-12-21T12:15:04.058Z,513
2018-12-21T12:16:11.256Z,515
2018-12-21T12:17:18.455Z,515
2018-12-21T12:18:25.651Z,516
2018-12-21T12:19:32.574Z,517
2018-12-21T12:20:39.776Z,517
2018-12-21T12:21:46.975Z,516
2018-12-21T12:22:54.174Z,515
2018-12-21T12:24:01.376Z,515
2018-12-21T12:25:08.804Z,517
2018-12-21T12:26:15.997Z,518
2018-12-21T12:27:22.920Z,518
2018-12-21T12:28:29.567Z,517
2018-12-21T12:29:36.770Z,517
2018-12-21T12:30:43.699Z,519
2018-12-21T12:31:50.893Z,517
2018-12-21T12:32:58.091Z,519
2018-12-21T12:34:05.294Z,519
2018-12-21T12:35:12.493Z,519
2018-12-21T12:36:19.699Z,518
2018-12-21T12:37:26.895Z,520
2018-12-21T12:38:34.096Z,519
2018-12-21T12:39:41.115Z,519
2018-12-21T12:40:47.769Z,520
2018-12-21T12:41:54.974Z,520
2018-12-21T12:43:02.176Z,519
2018-12-21T12:44:09.373Z,520
2018-12-21T12:45:16.307Z,519
2018-12-21T12:46:23.503Z,520
2018-12-21T12:47:30.703Z,519
2018-12-21T12:48:37.915Z,519
2018-12-21T12:49:45.115Z,520
2018-12-21T12:50:52.315Z,520
2018-12-21T12:51:59.522Z,520
2018-12-21T12:53:06.726Z,519
2018-12-21T12:54:13.654Z,520
2018-12-21T12:55:20.579Z,520
2018-12-21T12:56:27.781Z,520
2018-12-21T12:57:34.711Z,520
2018-12-21T12:58:41.912Z,519
2018-12-21T12:59:49.110Z,521
2018-12-21T13:00:56.310Z,521
2018-12-21T13:02:03.541Z,521
2018-12-21T13:03:10.746Z,520
2018-12-21T13:04:17.949Z,519
2018-12-21T13:05:25.146Z,519
2018-12-21T13:06:32.347Z,520
2018-12-21T13:07:39.542Z,522
2018-12-21T13:08:46.470Z,520
2018-12-21T13:09:53.678Z,520
2018-12-21T13:11:00.601Z,517
2018-12-21T13:12:07.794Z,522
2018-12-21T13:13:15.110Z,521
2018-12-21T13:14:22.296Z,520
2018-12-21T13:15:29.498Z,520
2018-12-21T13:16:36.696Z,522
2018-12-21T13:17:43.632Z,521
2018-12-21T13:18:50.827Z,520
2018-12-21T13:19:58.023Z,520
2018-12-21T13:21:04.950Z,520
2018-12-21T13:22:12.153Z,519
2018-12-21T13:23:19.354Z,518
2018-12-21T13:24:26.560Z,519
2018-12-21T13:25:33.483Z,519
2018-12-21T13:26:40.685Z,519
2018-12-21T13:27:47.902Z,519
2018-12-21T13:28:55.122Z,518
2018-12-21T13:30:02.343Z,518
2018-12-21T13:31:09.259Z,516
2018-12-21T13:32:16.456Z,517
2018-12-21T13:33:23.386Z,517
2018-12-21T13:34:30.590Z,517
2018-12-21T13:35:37.511Z,516
2018-12-21T13:36:44.463Z,514
2018-12-21T13:37:51.387Z,513
2018-12-21T13:38:58.336Z,513
2018-12-21T13:40:05.540Z,512
2018-12-21T13:41:12.738Z,512
2018-12-21T13:42:19.935Z,511
2018-12-21T13:43:27.138Z,511
2018-12-21T13:44:34.061Z,511
2018-12-21T13:45:41.263Z,509
2018-12-21T13:46:48.475Z,508
2018-12-21T13:47:55.404Z,510
2018-12-21T13:49:02.334Z,509
2018-12-21T13:50:09.533Z,509
2018-12-21T13:51:16.749Z,510
2018-12-21T13:52:23.947Z,510
2018-12-21T13:53:31.153Z,510
2018-12-21T13:54:38.354Z,509
2018-12-21T13:55:45.552Z,508
2018-12-21T13:56:52.750Z,505
2018-12-21T13:57:59.675Z,507
2018-12-21T13:59:06.878Z,511
2018-12-21T14:00:14.082Z,509
2018-12-21T14:01:21.006Z,508
2018-12-21T14:02:28.223Z,509
2018-12-21T14:03:35.420Z,507
2018-12-21T14:04:42.618Z,508
2018-12-21T14:05:49.546Z,508
2018-12-21T14:06:56.751Z,510
2018-12-21T14:08:03.963Z,509
2018-12-21T14:09:11.165Z,508
2018-12-21T14:10:18.620Z,508
2018-12-21T14:11:25.818Z,507
2018-12-21T14:12:32.805Z,507
2018-12-21T14:13:39.997Z,506
2018-12-21T14:15:01.577Z,507
2018-12-21T14:16:08.782Z,508
2018-12-21T14:17:15.994Z,503
2018-12-21T14:18:23.199Z,502
2018-12-21T14:19:30.410Z,505
2018-12-21T14:20:37.350Z,503
2018-12-21T14:21:44.561Z,506
2018-12-21T14:22:51.589Z,506
2018-12-21T14:23:58.520Z,507
2018-12-21T14:25:05.467Z,508
2018-12-21T14:26:12.676Z,508
2018-12-21T14:27:19.889Z,505
2018-12-21T14:28:26.276Z,506
2018-12-21T14:29:33.481Z,508
2018-12-21T14:30:40.686Z,506
2018-12-21T14:31:47.921Z,512
2018-12-21T14:32:54.858Z,509
2018-12-21T14:34:02.077Z,509
2018-12-21T14:35:09.293Z,506
2018-12-21T14:36:16.589Z,504
2018-12-21T14:37:23.785Z,502
2018-12-21T14:38:30.727Z,506
2018-12-21T14:39:38.172Z,510
2018-12-21T14:40:45.085Z,510
2018-12-21T14:41:52.288Z,510
2018-12-21T14:42:59.492Z,508
2018-12-21T14:44:06.702Z,508
2018-12-21T14:45:13.650Z,511
2018-12-21T14:46:20.855Z,514
2018-12-21T14:47:28.061Z,511
2018-12-21T14:48:34.992Z,511
2018-12-21T14:49:41.923Z,513
2018-12-21T14:50:49.121Z,511
2018-12-21T14:51:56.330Z,512
2018-12-21T14:53:03.544Z,508
2018-12-21T14:54:10.749Z,510
2018-12-21T14:55:17.963Z,509
2018-12-21T14:56:25.171Z,509
2018-12-21T14:57:32.382Z,506
2018-12-21T14:58:39.813Z,507
2018-12-21T14:59:47.015Z,512
2018-12-21T15:00:54.222Z,511
2018-12-21T15:02:01.439Z,511
2018-12-21T15:03:08.657Z,510
2018-12-21T15:04:15.874Z,512
2018-12-21T15:05:22.817Z,514
2018-12-21T15:06:30.044Z,515
2018-12-21T15:07:37.260Z,516
2018-12-21T15:08:44.209Z,514
2018-12-21T15:09:51.510Z,515
2018-12-21T15:10:58.725Z,523
2018-12-21T15:12:05.933Z,517
2018-12-21T15:13:13.144Z,515
2018-12-21T15:14:20.353Z,515
2018-12-21T15:15:27.567Z,514
2018-12-21T15:16:34.509Z,513
2018-12-21T15:17:41.446Z,515
2018-12-21T15:18:48.656Z,514
2018-12-21T15:19:55.597Z,516
2018-12-21T15:21:02.809Z,516
2018-12-21T15:22:09.757Z,520
2018-12-21T15:23:16.570Z,518
2018-12-21T15:24:23.791Z,517
2018-12-21T15:25:30.732Z,519